Japan Airlines Virtual Airport Information Service

Zurich Airport

ICAO: LSZH Country: Switzerland
Latitude: 47.4647 Longitude: 8.54917
Latest Arrival : QTR521 (OTHH-LSZH) Latest Departure : BAW709 (LSZH-EGLL)


WX CaptureLIVE
Data provided by noaa.gov | Fetched at 08:17:34

METAR : LSZH 090750Z 17004KT 110V240 CAVOK 22/13 Q1019 NOSIG

TAF : LSZH 090525Z 0906/1012 VRB03KT CAVOK TX30/0915Z TN18/0906Z TN14/1004Z PROB30 TEMPO 0910/0913 30010KT PROB40 1010/1012 25010KT 9999 SCT080


Runway Data for LSZH
Data provided by openaviationdata.com

Runway ID Mag Var Hdg Length Elevation Surface ILS Freq ILS Id ILS Slope
10 1 96° 8553 ft 1416 ft Concrete -- -- --
14 1 138° 10984 ft 1416 ft Concrete 108.3 IKL 3
16 1 155° 12287 ft 1416 ft Concrete 110.5 IZH 3
28 1 276° 8553 ft 1416 ft Concrete 109.75 IZW 3
32 1 318° 10984 ft 1416 ft Concrete -- -- --
34 1 335° 12287 ft 1416 ft Concrete 110.75 IZS 3

Zurich Airport, Switzerland
Use only for reference purposes



Not for navigational purposes.